createdAt,value
2017-08-15T00:01:33.109Z,18.50
2017-08-15T00:03:59.364Z,18.50
2017-08-15T00:06:25.677Z,18.60
2017-08-15T00:08:51.957Z,18.50
2017-08-15T00:11:18.232Z,18.50
2017-08-15T00:13:45.094Z,18.50
2017-08-15T00:16:12.159Z,18.40
2017-08-15T00:18:39.154Z,18.40
2017-08-15T00:21:05.435Z,18.40
2017-08-15T00:23:31.709Z,18.30
2017-08-15T00:25:58.022Z,18.30
2017-08-15T00:28:25.853Z,18.30
2017-08-15T00:30:53.472Z,18.30
2017-08-15T00:33:20.560Z,18.20
2017-08-15T00:35:47.611Z,18.20
2017-08-15T00:38:14.556Z,18.20
2017-08-15T00:40:41.584Z,18.10
2017-08-15T00:43:08.087Z,18.10
2017-08-15T00:45:35.184Z,18.10
2017-08-15T00:48:01.991Z,18.10
2017-08-15T00:50:28.329Z,18.10
2017-08-15T00:52:55.951Z,18.10
2017-08-15T00:55:22.943Z,18.10
2017-08-15T00:57:49.225Z,18.00
2017-08-15T01:00:16.553Z,18.00
2017-08-15T01:02:42.860Z,18.00
2017-08-15T01:05:09.185Z,18.00
2017-08-15T01:07:36.555Z,18.00
2017-08-15T01:10:03.578Z,17.90
2017-08-15T01:12:30.574Z,17.90
2017-08-15T01:14:57.784Z,17.90
2017-08-15T01:17:24.101Z,17.90
2017-08-15T01:19:52.122Z,17.90
2017-08-15T01:22:18.464Z,17.80
2017-08-15T01:24:44.749Z,17.80
2017-08-15T01:27:11.043Z,17.80
2017-08-15T01:29:37.313Z,17.70
2017-08-15T01:32:03.592Z,17.70
2017-08-15T01:34:29.911Z,17.70
2017-08-15T01:36:56.787Z,17.70
2017-08-15T01:39:24.032Z,17.60
2017-08-15T01:41:50.597Z,17.60
2017-08-15T01:44:17.633Z,17.50
2017-08-15T01:46:43.969Z,17.50
2017-08-15T01:49:10.264Z,17.50
2017-08-15T01:51:37.023Z,17.50
2017-08-15T01:54:04.337Z,17.40
2017-08-15T01:56:30.711Z,17.40
2017-08-15T01:58:57.000Z,17.30
2017-08-15T02:01:23.261Z,17.30
2017-08-15T02:03:49.563Z,17.20
2017-08-15T02:06:15.863Z,17.20
2017-08-15T02:08:42.436Z,17.20
2017-08-15T02:11:09.359Z,17.20
2017-08-15T02:13:35.603Z,17.20
2017-08-15T02:16:02.179Z,17.10
2017-08-15T02:18:28.469Z,17.10
2017-08-15T02:20:54.753Z,17.10
2017-08-15T02:23:22.421Z,17.00
2017-08-15T02:25:49.436Z,16.90
2017-08-15T02:28:16.705Z,16.90
2017-08-15T02:30:42.981Z,16.90
2017-08-15T02:33:09.664Z,16.90
2017-08-15T02:35:35.980Z,16.90
2017-08-15T02:38:03.727Z,16.90
2017-08-15T02:40:30.036Z,16.90
2017-08-15T02:42:56.297Z,16.90
2017-08-15T02:45:22.668Z,16.90
2017-08-15T02:47:48.980Z,16.90
2017-08-15T02:50:15.862Z,16.80
2017-08-15T02:52:42.680Z,16.80
2017-08-15T02:55:10.322Z,16.80
2017-08-15T02:57:37.196Z,16.80
2017-08-15T03:00:03.815Z,16.80
2017-08-15T03:02:31.424Z,16.80
2017-08-15T03:04:58.416Z,16.80
2017-08-15T03:07:24.968Z,16.80
2017-08-15T03:09:52.750Z,16.80
2017-08-15T03:12:19.015Z,16.80
2017-08-15T03:14:46.334Z,16.70
2017-08-15T03:17:13.383Z,16.70
2017-08-15T03:19:40.260Z,16.70
2017-08-15T03:22:06.561Z,16.70
2017-08-15T03:24:33.136Z,16.70
2017-08-15T03:26:59.595Z,16.70
2017-08-15T03:29:26.841Z,16.60
2017-08-15T03:31:53.808Z,16.60
2017-08-15T03:34:20.096Z,16.60
2017-08-15T03:36:47.368Z,16.50
2017-08-15T03:39:13.640Z,16.60
2017-08-15T03:41:39.930Z,16.60
2017-08-15T03:44:06.956Z,16.50
2017-08-15T03:46:33.236Z,16.50
2017-08-15T03:48:59.523Z,16.50
2017-08-15T03:51:25.798Z,16.50
2017-08-15T03:53:52.740Z,16.50
2017-08-15T03:56:19.063Z,16.50
2017-08-15T03:58:45.341Z,16.40
2017-08-15T04:01:12.592Z,16.50
2017-08-15T04:03:38.881Z,16.50
2017-08-15T04:06:06.781Z,16.40
2017-08-15T04:08:33.139Z,16.30
2017-08-15T04:10:59.396Z,16.30
2017-08-15T04:13:25.671Z,16.30
2017-08-15T04:15:52.498Z,16.30
2017-08-15T04:18:19.788Z,16.30
2017-08-15T04:20:46.825Z,16.30
2017-08-15T04:23:14.422Z,16.30
2017-08-15T04:25:41.175Z,16.30
2017-08-15T04:28:08.591Z,16.30
2017-08-15T04:30:36.324Z,16.30
2017-08-15T04:33:02.567Z,16.30
2017-08-15T04:35:29.923Z,16.20
2017-08-15T04:37:56.473Z,16.30
2017-08-15T04:40:22.753Z,16.30
2017-08-15T04:42:50.108Z,16.40
2017-08-15T04:45:16.981Z,16.60
2017-08-15T04:47:44.127Z,16.90
2017-08-15T04:50:10.990Z,17.20
2017-08-15T04:52:37.298Z,17.30
2017-08-15T04:55:03.928Z,17.60
2017-08-15T04:57:30.530Z,17.80
2017-08-15T04:59:57.161Z,17.90
2017-08-15T05:02:24.001Z,18.20
2017-08-15T05:04:51.269Z,18.40
2017-08-15T05:07:18.612Z,18.60
2017-08-15T05:09:45.887Z,18.80
2017-08-15T05:12:13.121Z,19.20
2017-08-15T05:14:39.928Z,19.40
2017-08-15T05:17:06.207Z,19.50
2017-08-15T05:19:33.973Z,19.80
2017-08-15T05:22:00.236Z,20.10
2017-08-15T05:24:26.514Z,20.40
2017-08-15T05:26:53.324Z,20.60
2017-08-15T05:29:19.618Z,20.90
2017-08-15T05:31:45.919Z,21.10
2017-08-15T05:34:12.180Z,21.30
2017-08-15T05:36:38.641Z,21.40
2017-08-15T05:39:05.939Z,21.70
2017-08-15T05:41:32.350Z,22.00
2017-08-15T05:44:01.401Z,22.20
2017-08-15T05:46:28.454Z,22.10
2017-08-15T05:48:55.408Z,22.10
2017-08-15T05:51:21.706Z,21.90
2017-08-15T05:53:48.017Z,21.80
2017-08-15T05:56:15.718Z,21.70
2017-08-15T05:58:43.508Z,21.70
2017-08-15T06:01:11.520Z,21.80
2017-08-15T06:03:38.078Z,21.80
2017-08-15T06:06:04.306Z,21.90
2017-08-15T06:08:30.916Z,22.10
2017-08-15T06:10:57.847Z,22.00
2017-08-15T06:13:24.120Z,22.00
2017-08-15T06:15:51.403Z,22.20
2017-08-15T06:18:17.664Z,22.40
2017-08-15T06:20:43.968Z,22.50
2017-08-15T06:23:10.992Z,22.50
2017-08-15T06:25:37.265Z,22.50
2017-08-15T06:28:04.516Z,22.40
2017-08-15T06:30:31.774Z,22.40
2017-08-15T06:32:58.615Z,22.60
2017-08-15T06:35:25.224Z,22.70
2017-08-15T06:37:52.273Z,23.10
2017-08-15T06:40:19.756Z,23.40
2017-08-15T06:42:47.473Z,23.60
2017-08-15T06:45:13.882Z,23.50
2017-08-15T06:47:40.140Z,23.60
2017-08-15T06:50:07.024Z,23.70
2017-08-15T06:52:33.305Z,23.90
2017-08-15T06:55:00.611Z,23.90
2017-08-15T06:57:27.859Z,24.00
2017-08-15T06:59:55.027Z,24.10
2017-08-15T07:02:21.307Z,24.10
2017-08-15T07:04:48.325Z,24.00
2017-08-15T07:07:14.582Z,24.00
2017-08-15T07:09:42.241Z,23.80
2017-08-15T07:12:09.276Z,23.80
2017-08-15T07:14:35.579Z,23.80
2017-08-15T07:17:01.883Z,23.80
2017-08-15T07:19:28.474Z,23.90
2017-08-15T07:21:54.841Z,24.00
2017-08-15T07:24:21.149Z,24.10
2017-08-15T07:26:47.471Z,24.20
2017-08-15T07:29:14.507Z,24.60
2017-08-15T07:31:41.799Z,24.60
2017-08-15T07:34:09.132Z,24.80
2017-08-15T07:36:35.437Z,24.90
2017-08-15T07:39:02.091Z,24.90
2017-08-15T07:41:29.022Z,25.10
2017-08-15T07:43:55.822Z,25.40
2017-08-15T07:46:22.837Z,25.80
2017-08-15T07:48:49.896Z,26.60
2017-08-15T07:51:17.186Z,26.60
2017-08-15T07:53:48.779Z,26.90
2017-08-15T07:56:15.149Z,27.20
2017-08-15T07:58:41.505Z,27.30
2017-08-15T08:01:07.831Z,27.20
2017-08-15T08:03:34.816Z,27.40
2017-08-15T08:06:02.476Z,27.70
2017-08-15T08:08:28.939Z,27.70
2017-08-15T08:10:55.988Z,27.90
2017-08-15T08:13:22.331Z,28.10
2017-08-15T08:15:49.195Z,28.20
2017-08-15T08:18:15.498Z,28.20
2017-08-15T08:20:43.103Z,28.10
2017-08-15T08:23:10.552Z,27.90
2017-08-15T08:25:38.314Z,27.80
2017-08-15T08:28:04.611Z,27.80
2017-08-15T08:30:30.880Z,27.90
2017-08-15T08:32:57.187Z,28.00
2017-08-15T08:35:23.445Z,28.10
2017-08-15T08:37:49.750Z,28.20
2017-08-15T08:40:16.059Z,28.40
2017-08-15T08:42:42.341Z,28.50
2017-08-15T08:45:09.737Z,28.60
2017-08-15T08:47:36.012Z,28.60
2017-08-15T08:50:02.849Z,28.50
2017-08-15T08:52:29.201Z,28.40
2017-08-15T08:54:55.491Z,28.30
2017-08-15T09:32:02.169Z,28.10
2017-08-15T09:34:29.513Z,28.10
2017-08-15T09:36:56.502Z,28.10
2017-08-15T09:39:23.218Z,28.20
2017-08-15T09:41:49.739Z,28.20
2017-08-15T09:44:17.172Z,28.20
2017-08-15T09:46:44.329Z,28.40
2017-08-15T09:49:10.624Z,28.40
2017-08-15T09:51:37.857Z,28.50
2017-08-15T09:54:04.490Z,28.80
2017-08-15T09:56:30.839Z,29.20
2017-08-15T09:59:03.525Z,29.40
2017-08-15T10:01:30.621Z,29.80
2017-08-15T10:03:57.013Z,29.70
2017-08-15T10:06:23.814Z,29.50
2017-08-15T10:08:50.166Z,29.40
2017-08-15T10:11:17.474Z,29.30
2017-08-15T10:13:44.051Z,29.20
2017-08-15T10:16:11.062Z,29.10
2017-08-15T10:18:37.334Z,29.30
2017-08-15T10:21:04.460Z,29.50
2017-08-15T10:23:31.237Z,29.80
2017-08-15T10:25:58.492Z,29.70
2017-08-15T10:28:24.870Z,30.00
2017-08-15T10:30:51.822Z,30.00
2017-08-15T10:33:18.104Z,29.80
2017-08-15T10:35:45.653Z,29.40
2017-08-15T10:38:12.347Z,29.40
2017-08-15T10:40:38.733Z,29.20
2017-08-15T10:43:06.219Z,29.20
2017-08-15T10:45:33.456Z,29.40
2017-08-15T10:48:00.864Z,29.70
2017-08-15T10:50:27.214Z,29.60
2017-08-15T10:52:54.025Z,30.00
2017-08-15T10:55:20.483Z,30.20
2017-08-15T10:57:47.413Z,30.00
2017-08-15T11:00:13.791Z,30.10
2017-08-15T11:02:42.176Z,30.30
2017-08-15T11:05:08.485Z,30.30
2017-08-15T11:07:36.071Z,30.80
2017-08-15T11:10:03.379Z,30.80
2017-08-15T11:12:30.465Z,30.50
2017-08-15T11:14:57.383Z,30.50
2017-08-15T11:17:25.410Z,30.20
2017-08-15T11:19:51.874Z,30.20
2017-08-15T11:22:18.939Z,30.70
2017-08-15T11:24:46.438Z,30.70
2017-08-15T11:27:12.859Z,30.90
2017-08-15T11:29:39.141Z,31.10
2017-08-15T11:32:05.729Z,31.00
2017-08-15T11:34:31.991Z,31.00
2017-08-15T11:36:58.972Z,30.80
2017-08-15T11:39:26.029Z,31.10
2017-08-15T11:41:53.010Z,31.20
2017-08-15T11:44:19.350Z,31.20
2017-08-15T11:46:46.192Z,31.10
2017-08-15T11:49:12.451Z,30.90
2017-08-15T11:51:38.880Z,31.00
2017-08-15T11:54:06.566Z,31.10
2017-08-15T11:56:33.479Z,31.20
2017-08-15T11:59:00.047Z,31.40
2017-08-15T12:01:28.206Z,31.60
2017-08-15T12:03:55.768Z,31.30
2017-08-15T12:06:22.876Z,31.30
2017-08-15T12:08:49.315Z,31.30
2017-08-15T12:11:16.196Z,31.20
2017-08-15T12:13:43.602Z,31.00
2017-08-15T12:16:10.999Z,31.00
2017-08-15T12:18:37.294Z,31.20
2017-08-15T12:21:04.328Z,31.40
2017-08-15T12:23:31.438Z,31.20
2017-08-15T12:25:58.570Z,31.30
2017-08-15T12:28:25.628Z,31.40
2017-08-15T12:30:52.687Z,31.50
2017-08-15T12:33:19.720Z,31.50
2017-08-15T12:35:47.064Z,31.50
2017-08-15T12:38:14.787Z,31.50
2017-08-15T12:40:43.017Z,31.50
2017-08-15T12:43:10.093Z,31.80
2017-08-15T12:45:36.423Z,31.80
2017-08-15T12:48:02.913Z,31.90
2017-08-15T12:50:29.256Z,31.90
2017-08-15T12:52:56.280Z,31.90
2017-08-15T12:55:23.593Z,31.90
2017-08-15T12:57:49.938Z,31.80
2017-08-15T13:00:16.256Z,31.90
2017-08-15T13:02:43.011Z,31.70
2017-08-15T13:05:10.125Z,31.50
2017-08-15T13:07:36.408Z,31.40
2017-08-15T13:10:03.288Z,31.50
2017-08-15T13:12:31.841Z,31.70
2017-08-15T13:14:59.078Z,31.70
2017-08-15T13:17:25.338Z,31.70
2017-08-15T13:19:52.867Z,31.80
2017-08-15T13:22:19.267Z,31.60
2017-08-15T13:24:46.561Z,31.40
2017-08-15T13:27:12.959Z,31.30
2017-08-15T13:29:39.317Z,31.10
2017-08-15T13:32:06.079Z,31.20
2017-08-15T13:34:33.701Z,31.20
2017-08-15T13:37:00.995Z,31.10
2017-08-15T13:39:29.110Z,31.10
2017-08-15T13:41:56.937Z,31.20
2017-08-15T13:44:24.022Z,31.20
2017-08-15T13:46:50.367Z,31.20
2017-08-15T13:49:16.684Z,31.20
2017-08-15T13:51:43.602Z,31.20
2017-08-15T13:54:11.343Z,31.10
2017-08-15T13:56:37.657Z,31.10
2017-08-15T13:59:04.553Z,31.20
2017-08-15T14:01:30.860Z,31.20
2017-08-15T14:03:57.518Z,31.40
2017-08-15T14:06:24.353Z,31.60
2017-08-15T14:08:52.425Z,31.70
2017-08-15T14:11:18.710Z,31.70
2017-08-15T14:13:44.998Z,31.70
2017-08-15T14:16:11.305Z,31.60
2017-08-15T14:18:37.839Z,31.50
2017-08-15T14:21:05.560Z,31.40
2017-08-15T14:23:32.580Z,31.40
2017-08-15T14:25:59.231Z,31.40
2017-08-15T14:28:25.585Z,31.30
2017-08-15T14:30:51.907Z,31.10
2017-08-15T14:33:19.276Z,31.00
2017-08-15T14:35:46.261Z,30.80
2017-08-15T14:38:13.513Z,30.70
2017-08-15T14:40:40.481Z,30.70
2017-08-15T14:43:07.798Z,30.80
2017-08-15T14:45:35.600Z,30.90
2017-08-15T14:48:02.884Z,30.90
2017-08-15T14:50:29.175Z,31.00
2017-08-15T14:52:56.470Z,30.90
2017-08-15T14:55:23.338Z,30.90
2017-08-15T14:57:50.306Z,30.90
2017-08-15T15:00:16.847Z,30.90
2017-08-15T15:02:43.221Z,31.00
2017-08-15T15:05:09.565Z,31.10
2017-08-15T15:07:37.378Z,31.20
2017-08-15T15:10:03.980Z,31.30
2017-08-15T15:12:30.265Z,31.20
2017-08-15T15:14:56.569Z,31.20
2017-08-15T15:17:31.620Z,31.30
2017-08-15T15:19:57.896Z,31.30
2017-08-15T15:22:25.225Z,31.20
2017-08-15T15:24:51.565Z,31.20
2017-08-15T15:27:17.888Z,31.20
2017-08-15T15:29:44.230Z,30.90
2017-08-15T15:32:12.185Z,30.60
2017-08-15T15:34:40.176Z,30.50
2017-08-15T15:37:07.195Z,30.10
2017-08-15T15:39:33.485Z,30.10
2017-08-15T15:41:59.800Z,30.10
2017-08-15T15:44:27.173Z,29.90
2017-08-15T15:46:53.438Z,29.90
2017-08-15T15:49:19.749Z,29.90
2017-08-15T15:51:46.105Z,29.80
2017-08-15T15:54:13.073Z,29.90
2017-08-15T15:56:39.405Z,29.90
2017-08-15T15:59:08.055Z,29.70
2017-08-15T16:01:34.690Z,29.70
2017-08-15T16:04:01.589Z,29.80
2017-08-15T16:06:29.476Z,29.80
2017-08-15T16:08:56.592Z,29.80
2017-08-15T16:11:23.669Z,29.70
2017-08-15T16:13:50.153Z,29.70
2017-08-15T16:16:16.895Z,29.70
2017-08-15T16:18:43.212Z,29.70
2017-08-15T16:21:09.502Z,29.80
2017-08-15T16:23:36.071Z,29.70
2017-08-15T16:26:03.005Z,29.70
2017-08-15T16:28:36.578Z,29.60
2017-08-15T16:31:03.551Z,29.60
2017-08-15T16:33:30.800Z,29.60
2017-08-15T16:35:57.571Z,29.50
2017-08-15T16:38:23.892Z,29.40
2017-08-15T16:40:50.506Z,29.30
2017-08-15T16:43:16.876Z,29.30
2017-08-15T16:45:43.838Z,29.20
2017-08-15T16:48:12.301Z,29.00
2017-08-15T16:50:39.347Z,28.90
2017-08-15T16:53:05.689Z,28.90
2017-08-15T16:55:32.738Z,28.80
2017-08-15T16:57:59.965Z,28.60
2017-08-15T17:00:26.772Z,28.60
2017-08-15T17:02:54.113Z,28.50
2017-08-15T17:05:21.108Z,28.40
2017-08-15T17:07:48.298Z,28.10
2017-08-15T17:10:14.675Z,28.00
2017-08-15T17:12:41.635Z,27.80
2017-08-15T17:15:08.432Z,27.70
2017-08-15T17:17:35.007Z,27.60
2017-08-15T17:20:01.338Z,27.40
2017-08-15T17:22:28.586Z,27.20
2017-08-15T17:24:55.094Z,27.10
2017-08-15T17:27:22.188Z,27.00
2017-08-15T17:29:48.817Z,27.00
2017-08-15T17:32:15.097Z,26.90
2017-08-15T17:34:41.731Z,26.60
2017-08-15T17:37:07.994Z,26.50
2017-08-15T17:39:34.296Z,26.60
2017-08-15T17:42:00.615Z,26.50
2017-08-15T17:44:27.390Z,26.50
2017-08-15T17:46:53.995Z,26.40
2017-08-15T17:49:20.262Z,26.30
2017-08-15T17:51:46.579Z,26.30
2017-08-15T17:54:13.442Z,26.20
2017-08-15T17:56:40.034Z,26.20
2017-08-15T17:59:07.270Z,26.10
2017-08-15T18:01:33.573Z,26.10
2017-08-15T18:03:59.906Z,25.90
2017-08-15T18:06:26.151Z,25.90
2017-08-15T18:08:53.287Z,25.80
2017-08-15T18:11:20.585Z,25.80
2017-08-15T18:13:47.220Z,25.80
2017-08-15T18:16:14.119Z,25.60
2017-08-15T18:18:41.153Z,25.50
2017-08-15T18:21:08.229Z,25.40
2017-08-15T18:23:35.318Z,25.30
2017-08-15T18:26:01.619Z,25.30
2017-08-15T18:28:28.883Z,25.30
2017-08-15T18:30:56.226Z,25.30
2017-08-15T18:33:23.217Z,25.20
2017-08-15T18:35:49.485Z,25.20
2017-08-15T18:38:16.841Z,25.10
2017-08-15T18:40:43.332Z,25.10
2017-08-15T18:43:10.850Z,25.10
2017-08-15T18:45:39.108Z,25.10
2017-08-15T18:48:06.133Z,25.10
2017-08-15T18:50:32.927Z,25.10
2017-08-15T18:53:00.043Z,25.10
2017-08-15T18:55:27.328Z,25.10
2017-08-15T18:57:54.116Z,25.00
2017-08-15T19:00:20.457Z,25.00
2017-08-15T19:02:46.912Z,24.90
2017-08-15T19:05:13.317Z,24.70
2017-08-15T19:07:39.689Z,24.40
2017-08-15T19:10:06.090Z,24.30
2017-08-15T19:12:33.407Z,24.40
2017-08-15T19:15:00.192Z,24.40
2017-08-15T19:17:27.290Z,24.60
2017-08-15T19:19:54.777Z,24.40
2017-08-15T19:22:21.219Z,24.30
2017-08-15T19:24:48.229Z,24.40
2017-08-15T19:27:14.596Z,24.40
2017-08-15T19:29:41.972Z,24.40
2017-08-15T19:32:08.247Z,24.40
2017-08-15T19:34:34.755Z,24.50
2017-08-15T19:37:01.604Z,24.70
2017-08-15T19:39:28.850Z,24.80
2017-08-15T19:41:56.064Z,24.90
2017-08-15T19:44:22.402Z,24.90
2017-08-15T19:46:49.722Z,24.80
2017-08-15T19:49:16.045Z,24.70
2017-08-15T19:51:42.359Z,24.60
2017-08-15T19:54:09.387Z,24.50
2017-08-15T19:56:35.654Z,24.50
2017-08-15T19:59:02.011Z,24.50
2017-08-15T20:01:28.378Z,24.30
2017-08-15T20:03:54.856Z,23.70
2017-08-15T20:06:21.858Z,23.00
2017-08-15T20:08:48.543Z,22.40
2017-08-15T20:11:15.458Z,22.00
2017-08-15T20:13:42.012Z,21.90
2017-08-15T20:16:08.307Z,21.80
2017-08-15T20:18:35.318Z,21.70
2017-08-15T20:21:02.165Z,21.40
2017-08-15T20:23:28.451Z,21.40
2017-08-15T20:25:55.282Z,21.30
2017-08-15T20:28:21.585Z,21.10
2017-08-15T20:30:48.863Z,21.00
2017-08-15T20:33:15.951Z,20.80
2017-08-15T20:35:46.271Z,20.90
2017-08-15T20:38:13.495Z,21.00
2017-08-15T20:40:40.377Z,21.10
2017-08-15T20:43:06.686Z,21.20
2017-08-15T20:45:33.892Z,21.20
2017-08-15T20:48:00.150Z,21.30
2017-08-15T20:50:27.028Z,21.50
2017-08-15T20:52:53.439Z,21.60
2017-08-15T20:55:19.752Z,21.50
2017-08-15T20:57:46.164Z,21.40
2017-08-15T21:00:12.432Z,21.30
2017-08-15T21:02:39.322Z,21.30
2017-08-15T21:05:06.582Z,21.20
2017-08-15T21:07:32.845Z,21.10
2017-08-15T21:09:59.162Z,21.00
2017-08-15T21:14:59.863Z,21.00
2017-08-15T21:17:26.269Z,21.00
2017-08-15T21:19:53.169Z,21.00
2017-08-15T21:22:19.580Z,21.10
2017-08-15T21:24:45.941Z,21.10
2017-08-15T21:27:12.815Z,21.10
2017-08-15T21:29:39.090Z,21.10
2017-08-15T21:32:06.365Z,21.00
2017-08-15T21:34:34.384Z,21.00
2017-08-15T21:37:02.135Z,21.00
2017-08-15T21:39:28.747Z,20.90
2017-08-15T21:41:55.014Z,20.80
2017-08-15T21:44:21.880Z,20.70
2017-08-15T21:46:49.163Z,20.70
2017-08-15T21:49:15.737Z,20.70
2017-08-15T21:51:42.302Z,20.70
2017-08-15T21:54:10.730Z,20.60
2017-08-15T21:56:37.036Z,20.50
2017-08-15T21:59:03.633Z,20.60
2017-08-15T22:01:36.970Z,20.50
2017-08-15T22:04:04.168Z,20.50
2017-08-15T22:06:32.196Z,20.30
2017-08-15T22:08:58.462Z,20.30
2017-08-15T22:11:25.452Z,20.40
2017-08-15T22:13:52.265Z,20.30
2017-08-15T22:16:18.555Z,20.30
2017-08-15T22:18:44.855Z,20.20
2017-08-15T22:21:11.725Z,20.00
2017-08-15T22:23:38.322Z,19.80
2017-08-15T22:26:05.092Z,19.70
2017-08-15T22:41:32.518Z,19.60
2017-08-15T22:43:58.789Z,19.70
2017-08-15T22:46:25.040Z,19.80
2017-08-15T22:48:51.319Z,19.90
2017-08-15T22:51:17.646Z,19.80
2017-08-15T22:53:43.940Z,19.80
2017-08-15T22:56:10.215Z,19.80
2017-08-15T22:58:37.084Z,19.80
2017-08-15T23:01:03.582Z,19.70
2017-08-15T23:03:29.850Z,19.70
2017-08-15T23:05:56.144Z,19.80
2017-08-15T23:08:22.425Z,19.90
2017-08-15T23:10:50.071Z,20.10
2017-08-15T23:13:16.787Z,20.10
2017-08-15T23:15:44.106Z,20.30
2017-08-15T23:18:10.924Z,20.30
2017-08-15T23:20:38.925Z,20.30
2017-08-15T23:23:06.540Z,20.30
2017-08-15T23:25:34.527Z,20.10
2017-08-15T23:28:01.604Z,20.00
2017-08-15T23:30:27.927Z,20.00
2017-08-15T23:32:55.167Z,19.90
2017-08-15T23:35:21.533Z,19.90
2017-08-15T23:37:48.312Z,19.80
2017-08-15T23:40:15.655Z,19.90
2017-08-15T23:42:42.573Z,19.80
2017-08-15T23:45:09.168Z,20.00
2017-08-15T23:47:36.082Z,20.00
2017-08-15T23:50:02.798Z,19.90
2017-08-15T23:52:29.061Z,20.00
2017-08-15T23:54:55.343Z,19.90
2017-08-15T23:57:22.153Z,19.90
2017-08-15T23:59:48.994Z,19.80
